Pagrindinis puslapis
METAR-TAF:

METAR-TAF

Oro uostai :

Čorlu, Turkija

platuma: 41-08N, ilguma: 027-55E, Aukštis: 173 m

Dabartinis oras

Ataskaita buvo paskelbta 26 minutes, ne 22:20 UTC
Ramus vėjas
Temperatūra 11°C
Drėgmė 71%
Slėgis 1021 hPa
Matomumas 10 km arba daugiau
nėra debesų žemiau 1500 m ir nėra kamuolinių lietaus debesų

METAR: LTBU 242220Z 00000KT CAVOK 11/06 Q1021 RMK RWY22 VRB02KT

Laikas: 01:46 (22:46 UTC)

Prognozė

Ataskaita buvo paskelbta 6 valandos ir 6 minutes, ne 16:40 UTC
Prognozė galioja nuo 24 metu 18 UTC su 25 metu 18 UTC
Vėjas 2 kt nuo kintamojo kryptimis
Matomumas 10 km arba daugiau
nėra debesų žemiau 1500 m ir nėra kamuolinių lietaus debesų

TAF: LTBU 241640Z 2418/2518 VRB02KT CAVOK

Orai ataskaitas ir orų prognozės (METAR, TAF).

turimą stotys yra geltonos ir raudonos taškus žemėlapyje.

Perkelti pele per norėdami pamatyti stoties vardą.

Tada spustelėkite, norėdami matyti oro stebėjimo ir prognozės.

Norėdami pakeisti žemėlapį: spustelėkite ant žalios mygtukų su juodo kryžiaus žemyn,; žalią mygtuką su brūkšneliu, jei norite nutolinti; arba žalių rodyklių gretimoms žemėlapius.


METAR-TAF: